Time;durP1;ratioP1;P1;durP2;ratioP2;P2;SDS_P1;SDS_P2;PMS_P1;PMS_P2;Temp;Humidity;BMP_temperature;BMP_pressure;BME280_temperature;BME280_humidity;BME280_pressure;Samples;Min_cycle;Max_cycle;Signal;HPM_P1;HPM_P2
2021/07/07 00:01:12;;;;;;;3.35;1.30;;;;;;;16.96;80.21;99184.97;5079696;28;20198;-73
2021/07/07 00:03:38;;;;;;;1.88;1.30;;;;;;;16.87;80.71;99178.50;5092745;28;20276;-72
2021/07/07 00:06:06;;;;;;;2.00;1.42;;;;;;;17.05;79.53;99184.13;5091240;28;20257;-74
2021/07/07 00:08:33;;;;;;;4.57;1.30;;;;;;;17.09;79.21;99184.69;5091920;28;20235;-73
2021/07/07 00:11:02;;;;;;;2.67;1.60;;;;;;;16.94;80.00;99172.53;5091820;28;20307;-74
2021/07/07 00:13:29;;;;;;;3.10;1.40;;;;;;;16.82;80.67;99188.97;5095351;28;20182;-73
2021/07/07 00:15:55;;;;;;;1.52;1.20;;;;;;;16.65;81.75;99192.28;5094696;28;20223;-74
2021/07/07 00:18:22;;;;;;;3.35;1.55;;;;;;;16.44;83.37;99186.94;5095593;28;20763;-74
2021/07/07 00:20:54;;;;;;;4.88;1.70;;;;;;;16.47;83.21;99184.78;5095038;28;20249;-72
2021/07/07 00:23:23;;;;;;;5.22;1.85;;;;;;;16.55;82.61;99181.41;5095108;28;20191;-74
2021/07/07 00:25:50;;;;;;;2.53;1.88;;;;;;;16.57;82.59;99176.66;5094470;28;20642;-73
2021/07/07 00:28:17;;;;;;;3.70;1.95;;;;;;;16.60;82.44;99167.41;5095607;28;20253;-73
2021/07/07 00:30:45;;;;;;;2.17;1.60;;;;;;;16.61;82.67;99174.53;5094470;28;20283;-73
2021/07/07 00:33:12;;;;;;;4.47;1.70;;;;;;;16.61;82.67;99179.97;5094482;28;20199;-73
2021/07/07 00:35:39;;;;;;;3.30;1.55;;;;;;;16.79;81.49;99191.03;5094696;28;20231;-73
2021/07/07 00:38:06;;;;;;;3.38;1.75;;;;;;;16.66;82.17;99194.00;5094392;28;20291;-73
2021/07/07 00:40:34;;;;;;;5.25;2.35;;;;;;;16.71;82.36;99177.28;5093870;28;20180;-72
2021/07/07 00:43:00;;;;;;;3.92;1.88;;;;;;;16.55;83.05;99175.06;5094341;28;20251;-74
2021/07/07 00:45:27;;;;;;;3.50;1.60;;;;;;;16.36;84.41;99194.88;5094495;28;20200;-74
2021/07/07 00:47:54;;;;;;;3.25;1.58;;;;;;;16.33;84.80;99203.31;5093899;28;20188;-74
2021/07/07 00:50:21;;;;;;;1.77;1.40;;;;;;;16.44;84.26;99195.94;5106250;28;20189;-73
2021/07/07 00:52:47;;;;;;;3.35;1.35;;;;;;;16.50;84.00;99191.78;5093825;28;20204;-73
2021/07/07 00:55:16;;;;;;;3.95;2.30;;;;;;;16.52;83.92;99186.22;5093965;28;20275;-74
2021/07/07 00:57:45;;;;;;;4.53;1.65;;;;;;;16.61;83.14;99191.69;5094293;28;20725;-72
2021/07/07 01:00:14;;;;;;;1.85;1.30;;;;;;;16.51;83.86;99201.69;5093937;28;20627;-73
2021/07/07 01:02:43;;;;;;;3.60;1.85;;;;;;;16.62;83.09;99211.56;5080395;28;20718;-72
2021/07/07 01:05:12;;;;;;;2.78;1.40;;;;;;;16.83;81.62;99209.69;5104417;28;20387;-73
2021/07/07 01:07:39;;;;;;;3.65;1.65;;;;;;;16.68;82.11;99208.31;5094011;28;20206;-73
2021/07/07 01:10:07;;;;;;;2.28;1.40;;;;;;;16.72;81.84;99198.91;5093227;28;20198;-73
2021/07/07 01:12:34;;;;;;;1.70;1.40;;;;;;;16.71;81.77;99183.59;5093505;28;20191;-73
2021/07/07 01:15:05;;;;;;;2.78;1.42;;;;;;;16.67;82.15;99188.44;5094207;28;20184;-72
2021/07/07 01:17:33;;;;;;;1.80;1.65;;;;;;;16.56;83.09;99193.13;5093889;28;20200;-73
2021/07/07 01:19:59;;;;;;;5.80;1.80;;;;;;;16.54;82.94;99195.09;5094320;28;20199;-73
2021/07/07 01:22:29;;;;;;;3.95;1.77;;;;;;;16.44;83.73;99201.38;5092086;28;20184;-72
2021/07/07 01:24:55;;;;;;;3.90;1.60;;;;;;;16.39;84.20;99203.63;5093348;28;20295;-73
2021/07/07 01:27:23;;;;;;;2.95;1.48;;;;;;;16.39;84.48;99198.22;5093426;28;20208;-72
2021/07/07 01:29:49;;;;;;;4.05;1.80;;;;;;;16.39;84.21;99198.22;5093335;28;20208;-73
2021/07/07 01:32:16;;;;;;;1.40;1.27;;;;;;;16.32;84.55;99201.59;5093852;28;20226;-73
2021/07/07 01:34:42;;;;;;;2.80;1.65;;;;;;;16.49;84.12;99202.81;5093008;28;20180;-73
2021/07/07 01:37:09;;;;;;;3.00;1.20;;;;;;;16.57;82.95;99198.41;5093293;28;20302;-72
2021/07/07 01:39:37;;;;;;;2.13;1.50;;;;;;;16.42;83.88;99197.06;5093234;28;20618;-73
2021/07/07 01:42:04;;;;;;;3.47;1.85;;;;;;;16.49;83.42;99183.81;5092787;28;20208;-73
2021/07/07 01:44:31;;;;;;;3.53;1.23;;;;;;;16.22;84.88;99191.53;5092643;28;20188;-73
2021/07/07 01:46:58;;;;;;;2.47;1.60;;;;;;;16.02;86.36;99201.41;5093023;28;20199;-72
2021/07/07 01:49:24;;;;;;;8.45;2.15;;;;;;;16.30;85.18;99218.00;5093092;28;20567;-72
2021/07/07 01:51:51;;;;;;;4.80;2.00;;;;;;;16.29;84.94;99216.31;5092282;28;20286;-73
2021/07/07 01:54:17;;;;;;;1.73;1.48;;;;;;;16.26;85.30;99216.59;5092482;28;20286;-73
2021/07/07 01:56:45;;;;;;;3.88;1.70;;;;;;;16.43;83.85;99206.94;5093120;28;20725;-74
2021/07/07 01:59:12;;;;;;;3.92;1.65;;;;;;;16.14;84.90;99217.63;5092950;28;20560;-73
2021/07/07 02:01:39;;;;;;;2.85;1.77;;;;;;;16.10;85.72;99213.47;5092590;28;20190;-73
2021/07/07 02:04:05;;;;;;;1.92;1.73;;;;;;;16.08;86.31;99213.63;5092323;28;20283;-74
2021/07/07 02:06:32;;;;;;;5.85;1.52;;;;;;;16.10;86.50;99208.03;5092660;28;20206;-72
2021/07/07 02:08:59;;;;;;;2.45;1.52;;;;;;;16.09;86.40;99207.19;5093078;28;20256;-73
2021/07/07 02:11:25;;;;;;;2.20;1.48;;;;;;;16.07;86.28;99201.00;5092304;28;20188;-73
2021/07/07 02:13:54;;;;;;;4.13;1.60;;;;;;;15.90;87.62;99202.50;5092809;28;20964;-72
2021/07/07 02:16:20;;;;;;;5.95;1.92;;;;;;;15.80;88.55;99206.97;5092822;28;20295;-72
2021/07/07 02:18:47;;;;;;;1.85;1.50;;;;;;;15.88;88.65;99196.34;5092297;28;20203;-73
2021/07/07 02:21:14;;;;;;;8.00;1.80;;;;;;;15.90;88.45;99205.22;5092211;28;20188;-73
2021/07/07 02:23:40;;;;;;;3.00;1.80;;;;;;;15.89;88.46;99210.75;5092782;28;20191;-73
2021/07/07 02:26:07;;;;;;;3.60;2.17;;;;;;;15.80;88.96;99206.97;5092685;28;20202;-72
2021/07/07 02:28:34;;;;;;;2.65;1.50;;;;;;;15.74;89.80;99208.38;5092710;28;20311;-72
2021/07/07 02:31:02;;;;;;;7.65;1.52;;;;;;;15.86;88.94;99206.47;5092264;28;20196;-73
2021/07/07 02:33:28;;;;;;;3.45;2.10;;;;;;;15.84;89.16;99203.03;5092368;28;20219;-73
2021/07/07 02:35:55;;;;;;;3.05;2.00;;;;;;;15.86;88.75;99202.91;5092668;28;21106;-72
2021/07/07 02:38:24;;;;;;;4.07;1.80;;;;;;;15.86;88.96;99201.03;5092003;28;20188;-73
2021/07/07 02:40:54;;;;;;;1.85;1.20;;;;;;;15.86;88.78;99202.91;5092293;28;20188;-73
2021/07/07 02:43:21;;;;;;;3.83;1.90;;;;;;;15.79;89.15;99208.84;5091818;28;20553;-73
2021/07/07 02:45:48;;;;;;;2.03;1.67;;;;;;;15.76;89.43;99222.69;5091843;28;20226;-73
2021/07/07 02:48:16;;;;;;;3.42;2.05;;;;;;;15.80;89.53;99218.69;5092162;28;20275;-73
2021/07/07 02:50:44;;;;;;;6.25;1.63;;;;;;;15.83;89.16;99218.44;5091738;28;20196;-74
2021/07/07 02:53:13;;;;;;;4.65;1.65;;;;;;;15.81;89.51;99225.00;5092092;28;20271;-72
2021/07/07 02:55:40;;;;;;;2.05;1.70;;;;;;;15.75;89.76;99237.25;5092274;28;20276;-73
2021/07/07 02:58:06;;;;;;;3.88;1.60;;;;;;;15.72;90.01;99232.09;5104164;28;20254;-74
2021/07/07 03:00:35;;;;;;;4.25;1.80;;;;;;;15.74;89.84;99235.53;5109084;28;20188;-74
2021/07/07 03:03:05;;;;;;;3.15;1.52;;;;;;;15.74;90.32;99219.25;5091589;28;20195;-73
2021/07/07 03:05:37;;;;;;;5.18;1.80;;;;;;;15.69;90.33;99215.16;5091620;28;20685;-72
2021/07/07 03:08:04;;;;;;;1.95;1.52;;;;;;;15.69;90.10;99209.72;5092007;28;20196;-72
2021/07/07 03:10:31;;;;;;;3.55;1.60;;;;;;;15.73;90.40;99209.38;5091461;28;20200;-73
2021/07/07 03:12:58;;;;;;;3.40;1.70;;;;;;;15.78;89.75;99222.53;5091221;28;20184;-72
2021/07/07 03:15:26;;;;;;;2.10;1.80;;;;;;;15.69;89.81;99220.59;5091546;28;20195;-72
2021/07/07 03:17:53;;;;;;;2.40;1.80;;;;;;;15.69;89.72;99216.00;5091279;28;20212;-74
2021/07/07 03:20:20;;;;;;;2.60;2.10;;;;;;;15.57;90.61;99206.22;5091657;28;20214;-73
2021/07/07 03:22:48;;;;;;;3.45;1.73;;;;;;;15.61;90.47;99219.38;5091536;28;20214;-73
2021/07/07 03:25:15;;;;;;;5.60;1.80;;;;;;;15.59;90.92;99215.09;5092037;28;20560;-73
2021/07/07 03:27:42;;;;;;;2.35;1.67;;;;;;;15.44;91.37;99217.22;5091948;28;20665;-72
2021/07/07 03:30:10;;;;;;;4.32;1.90;;;;;;;15.49;91.37;99222.28;5091632;28;20184;-73
2021/07/07 03:32:36;;;;;;;4.30;1.88;;;;;;;15.59;90.67;99217.81;5091635;28;20195;-73
2021/07/07 03:35:05;;;;;;;3.78;1.90;;;;;;;15.54;90.69;99201.91;5091842;28;20949;-72
2021/07/07 03:37:31;;;;;;;3.92;1.92;;;;;;;15.47;91.71;99217.00;5091658;28;20327;-73
2021/07/07 03:39:59;;;;;;;4.85;1.92;;;;;;;15.36;92.35;99217.03;5091645;28;20195;-72
2021/07/07 03:42:26;;;;;;;1.90;1.63;;;;;;;15.40;92.61;99226.66;5091530;28;20635;-72
2021/07/07 03:44:52;;;;;;;2.42;2.20;;;;;;;15.50;91.96;99234.88;5091641;28;20188;-72
2021/07/07 03:47:19;;;;;;;4.40;2.42;;;;;;;15.39;92.65;99233.03;5095081;28;20315;-73
2021/07/07 03:49:46;;;;;;;5.15;2.92;;;;;;;15.40;92.64;99232.06;5094852;28;20206;-73
2021/07/07 03:52:12;;;;;;;3.50;3.20;;;;;;;15.41;92.41;99237.34;5095262;28;20196;-74
2021/07/07 03:54:39;;;;;;;5.60;1.95;;;;;;;15.42;92.28;99236.38;5095524;28;20279;-73
2021/07/07 03:57:07;;;;;;;6.65;2.50;;;;;;;15.47;91.49;99237.81;5095351;28;20718;-73
2021/07/07 03:59:33;;;;;;;2.80;2.40;;;;;;;15.50;91.47;99237.56;5095610;28;20310;-73
2021/07/07 04:02:00;;;;;;;2.45;1.83;;;;;;;15.38;92.32;99239.47;5095135;28;20189;-73
2021/07/07 04:04:28;;;;;;;3.65;2.47;;;;;;;15.35;92.39;99240.59;5094546;28;20319;-73
2021/07/07 04:06:57;;;;;;;3.30;1.90;;;;;;;15.34;92.50;99246.13;5094988;28;20192;-73
2021/07/07 04:09:27;;;;;;;5.50;3.08;;;;;;;15.37;92.21;99254.88;5099575;28;20248;-72
2021/07/07 04:11:54;;;;;;;5.78;2.50;;;;;;;15.40;92.27;99256.50;5096740;28;20188;-73
2021/07/07 04:14:24;;;;;;;6.75;2.30;;;;;;;15.51;91.27;99256.44;5094513;28;20192;-73
2021/07/07 04:16:51;;;;;;;5.85;3.05;;;;;;;15.40;91.54;99251.06;5094317;28;20204;-73
2021/07/07 04:19:18;;;;;;;5.45;2.67;;;;;;;15.47;91.36;99254.09;5094976;28;20199;-73
2021/07/07 04:21:45;;;;;;;4.88;2.70;;;;;;;15.41;91.54;99256.34;5094788;28;20184;-72
2021/07/07 04:24:11;;;;;;;4.55;2.20;;;;;;;15.37;91.77;99256.72;5094929;28;20623;-73
2021/07/07 04:26:38;;;;;;;6.15;2.25;;;;;;;15.34;91.82;99262.41;5094500;28;20176;-73
2021/07/07 04:29:05;;;;;;;3.75;2.40;;;;;;;15.22;92.63;99273.28;5094861;28;20278;-73
2021/07/07 04:31:33;;;;;;;4.25;2.05;;;;;;;15.31;92.20;99266.25;5093803;28;20198;-73
2021/07/07 04:34:00;;;;;;;3.85;2.25;;;;;;;15.38;91.99;99282.88;5094000;28;20198;-73
2021/07/07 04:36:26;;;;;;;3.10;2.05;;;;;;;15.41;91.76;99277.19;5094084;28;20601;-73
2021/07/07 04:38:53;;;;;;;3.47;2.35;;;;;;;15.31;92.14;99279.81;5092771;28;20284;-74
2021/07/07 04:41:19;;;;;;;3.20;1.75;;;;;;;15.25;92.65;99293.00;5094488;28;20195;-73
2021/07/07 04:43:46;;;;;;;3.83;2.38;;;;;;;15.32;92.38;99299.66;5093691;28;20215;-72
2021/07/07 04:46:13;;;;;;;2.30;2.10;;;;;;;15.34;92.56;99303.97;5082877;28;20198;-72
2021/07/07 04:48:41;;;;;;;3.05;2.28;;;;;;;15.52;91.06;99293.44;5094389;28;20208;-73
2021/07/07 04:51:07;;;;;;;3.28;2.40;;;;;;;15.44;91.73;99309.47;5090231;28;20196;-72
2021/07/07 04:53:34;;;;;;;2.42;1.75;;;;;;;15.43;92.06;99307.75;5094036;28;20192;-73
2021/07/07 04:56:00;;;;;;;5.30;4.25;;;;;;;15.38;92.23;99301.88;5094122;28;20282;-73
2021/07/07 04:58:27;;;;;;;4.50;2.45;;;;;;;15.39;91.91;99317.13;5095181;28;20254;-73
2021/07/07 05:00:54;;;;;;;3.25;2.10;;;;;;;15.48;91.62;99308.22;5107847;28;20190;-73
2021/07/07 05:03:20;;;;;;;5.22;2.78;;;;;;;15.53;91.34;99308.72;5097010;28;20185;-73
2021/07/07 05:05:48;;;;;;;4.85;2.67;;;;;;;15.52;91.55;99307.00;5101514;28;20220;-73
2021/07/07 05:08:15;;;;;;;2.60;2.17;;;;;;;15.50;91.55;99316.25;5095547;28;20204;-72
2021/07/07 05:10:42;;;;;;;5.78;3.78;;;;;;;15.59;91.38;99316.34;5093892;28;20649;-73
2021/07/07 05:13:08;;;;;;;6.10;3.15;;;;;;;15.93;89.92;99318.97;5093932;28;20271;-73
2021/07/07 05:15:35;;;;;;;4.65;2.95;;;;;;;16.33;86.40;99320.16;5093552;28;20195;-74
2021/07/07 05:18:02;;;;;;;6.60;2.53;;;;;;;16.34;85.22;99322.69;5093946;28;20299;-74
2021/07/07 05:20:28;;;;;;;2.85;2.60;;;;;;;16.45;84.67;99330.78;5093362;28;20227;-73
2021/07/07 05:22:56;;;;;;;4.00;2.53;;;;;;;16.44;84.47;99329.09;5093293;28;20279;-73
2021/07/07 05:25:23;;;;;;;5.30;2.90;;;;;;;16.42;84.85;99322.06;5093026;28;20184;-73
2021/07/07 05:27:49;;;;;;;3.05;2.60;;;;;;;16.40;84.78;99324.91;5093161;28;20515;-73
2021/07/07 05:30:20;;;;;;;3.15;2.58;;;;;;;16.39;84.87;99316.88;5111508;28;20621;-73
2021/07/07 05:32:46;;;;;;;5.65;3.72;;;;;;;16.42;84.84;99324.78;5113535;28;20660;-73
2021/07/07 05:35:14;;;;;;;7.45;2.60;;;;;;;16.57;84.03;99319.84;5113174;28;20275;-73
2021/07/07 05:37:40;;;;;;;5.38;2.45;;;;;;;16.51;83.54;99317.66;5113060;28;20302;-74
2021/07/07 05:40:10;;;;;;;6.13;3.38;;;;;;;16.69;82.43;99329.66;5107204;27;20184;-74
2021/07/07 05:42:37;;;;;;;7.30;3.17;;;;;;;16.89;81.53;99325.19;5093332;28;20587;-74
2021/07/07 05:45:05;;;;;;;11.27;3.55;;;;;;;17.02;81.12;99330.41;5092414;28;20284;-74
2021/07/07 05:47:31;;;;;;;4.40;2.20;;;;;;;17.13;80.51;99332.16;5093073;28;20185;-73
2021/07/07 05:49:58;;;;;;;3.35;2.40;;;;;;;17.18;79.82;99328.03;5092978;28;20195;-74
2021/07/07 05:52:26;;;;;;;4.80;3.08;;;;;;;17.29;79.68;99332.50;5092748;28;20200;-73
2021/07/07 05:54:53;;;;;;;4.50;2.95;;;;;;;17.45;78.61;99332.84;5092672;28;20189;-74
2021/07/07 05:57:24;;;;;;;7.25;4.05;;;;;;;17.74;76.94;99333.91;5092666;28;20299;-74
2021/07/07 05:59:51;;;;;;;7.78;2.88;;;;;;;17.96;75.23;99330.09;5092675;28;20652;-73
2021/07/07 06:02:18;;;;;;;7.50;3.38;;;;;;;18.07;74.41;99346.28;5092937;28;20656;-73
2021/07/07 06:04:44;;;;;;;4.70;2.50;;;;;;;18.13;73.74;99342.97;5092575;28;20238;-73
2021/07/07 06:07:11;;;;;;;6.47;2.30;;;;;;;17.94;74.24;99334.81;5092889;28;20290;-74
2021/07/07 06:09:38;;;;;;;10.35;9.48;;;;;;;18.20;73.58;99338.66;5092376;28;20198;-74
2021/07/07 06:12:05;;;;;;;6.13;2.38;;;;;;;18.30;72.80;99335.94;5093040;28;20214;-74
2021/07/07 06:14:33;;;;;;;9.65;3.30;;;;;;;18.42;72.44;99344.81;5092796;28;20198;-75
2021/07/07 06:17:00;;;;;;;3.15;2.10;;;;;;;18.45;72.01;99336.34;5092674;28;20270;-75
2021/07/07 06:19:26;;;;;;;4.85;2.10;;;;;;;18.55;71.41;99343.50;5093353;28;20234;-74
2021/07/07 06:21:54;;;;;;;3.30;1.90;;;;;;;18.65;71.15;99342.63;5092690;28;20274;-73
2021/07/07 06:24:20;;;;;;;4.85;2.60;;;;;;;18.57;71.66;99345.25;5092287;28;20545;-74
2021/07/07 06:26:47;;;;;;;5.10;2.25;;;;;;;18.63;71.39;99350.09;5093022;28;20294;-74
2021/07/07 06:29:15;;;;;;;6.35;2.30;;;;;;;18.82;70.94;99346.50;5092978;28;20225;-74
2021/07/07 06:31:43;;;;;;;5.18;1.80;;;;;;;19.12;69.29;99348.97;5092251;28;20194;-74
2021/07/07 06:34:11;;;;;;;1.88;1.60;;;;;;;19.27;68.60;99352.06;5092341;28;20588;-73
2021/07/07 06:36:38;;;;;;;7.63;1.80;;;;;;;19.35;68.80;99356.75;5092036;28;20202;-74
2021/07/07 06:39:05;;;;;;;4.32;2.70;;;;;;;19.55;67.69;99352.06;5097070;28;20339;-73
2021/07/07 06:41:32;;;;;;;6.53;2.03;;;;;;;19.69;67.75;99350.72;5112863;28;20183;-73
2021/07/07 06:43:59;;;;;;;3.42;2.10;;;;;;;19.85;67.12;99353.63;5103557;28;20191;-74
2021/07/07 06:46:26;;;;;;;2.67;1.52;;;;;;;19.86;66.75;99357.22;5091622;28;20223;-74
2021/07/07 06:48:54;;;;;;;9.10;3.50;;;;;;;19.88;67.06;99347.00;5091142;28;20739;-74
2021/07/07 06:51:20;;;;;;;7.30;2.50;;;;;;;20.02;66.91;99351.94;5091902;28;20788;-73
2021/07/07 06:53:47;;;;;;;3.65;2.42;;;;;;;20.14;65.99;99347.94;5091886;28;20525;-74
2021/07/07 06:56:14;;;;;;;4.77;3.33;;;;;;;20.19;65.81;99344.72;5092038;28;20631;-75
2021/07/07 06:58:40;;;;;;;6.10;3.40;;;;;;;20.33;65.35;99348.81;5092206;28;20576;-73
2021/07/07 07:01:07;;;;;;;7.55;2.83;;;;;;;20.36;65.33;99351.22;5091515;28;20448;-72
2021/07/07 07:03:34;;;;;;;6.20;2.50;;;;;;;20.13;66.14;99351.69;5099817;28;20223;-74
2021/07/07 07:06:02;;;;;;;5.83;2.03;;;;;;;20.15;65.11;99355.13;5091397;28;20473;-74
2021/07/07 07:08:28;;;;;;;4.53;2.73;;;;;;;20.17;65.44;99354.94;5091801;28;20442;-74
2021/07/07 07:10:55;;;;;;;15.73;2.70;;;;;;;20.55;64.56;99353.75;5092258;28;20426;-73
2021/07/07 07:13:22;;;;;;;6.20;2.70;;;;;;;20.68;64.37;99355.25;5112226;28;20448;-74
2021/07/07 07:15:48;;;;;;;6.73;2.30;;;;;;;20.66;64.05;99354.53;5099833;28;20752;-74
2021/07/07 07:18:15;;;;;;;4.47;2.20;;;;;;;20.76;63.56;99350.69;5091575;28;20462;-74
2021/07/07 07:20:42;;;;;;;5.30;2.23;;;;;;;20.74;63.43;99349.16;5093598;28;20442;-74
2021/07/07 07:23:10;;;;;;;3.77;2.50;;;;;;;20.86;63.18;99352.47;5100731;28;20425;-74
2021/07/07 07:25:37;;;;;;;6.37;5.00;;;;;;;20.80;62.85;99351.22;5115867;28;20521;-73
2021/07/07 07:28:05;;;;;;;5.30;2.80;;;;;;;20.70;63.88;99351.34;5116510;28;20424;-74
2021/07/07 07:30:32;;;;;;;5.30;2.17;;;;;;;20.54;64.28;99349.31;5114630;28;20753;-73
2021/07/07 07:32:59;;;;;;;3.77;2.60;;;;;;;20.87;63.53;99344.09;5102383;28;20529;-74
2021/07/07 07:35:26;;;;;;;4.13;2.60;;;;;;;21.10;62.02;99344.41;5095897;28;20429;-72
2021/07/07 07:38:01;;;;;;;3.97;2.03;;;;;;;21.39;61.06;99338.56;5095172;28;20470;-74
2021/07/07 07:40:35;;;;;;;8.53;3.43;;;;;;;21.67;61.09;99341.06;5095327;28;20433;-75
2021/07/07 07:43:02;;;;;;;4.00;2.00;;;;;;;21.69;60.40;99340.91;5095919;28;20907;-74
2021/07/07 07:45:29;;;;;;;4.97;2.43;;;;;;;21.56;60.67;99344.13;5095381;28;20503;-73
2021/07/07 07:47:56;;;;;;;3.37;2.23;;;;;;;21.61;60.72;99347.22;5104930;28;20432;-71
2021/07/07 07:50:23;;;;;;;10.00;4.00;;;;;;;21.85;60.03;99351.91;5095015;28;20927;-74
2021/07/07 07:52:50;;;;;;;6.80;2.10;;;;;;;21.67;60.28;99345.69;5095617;28;20832;-73
2021/07/07 07:55:17;;;;;;;5.10;2.13;;;;;;;21.80;60.33;99349.69;5094666;28;20446;-74
2021/07/07 07:57:45;;;;;;;5.10;2.23;;;;;;;22.08;58.92;99344.75;5094772;28;20466;-73
2021/07/07 08:00:14;;;;;;;5.27;1.87;;;;;;;21.77;59.21;99347.25;5094614;28;20496;-72
2021/07/07 08:02:41;;;;;;;3.43;1.80;;;;;;;21.95;58.85;99349.00;5095711;28;20430;-74
2021/07/07 08:05:09;;;;;;;7.50;4.90;;;;;;;22.34;58.06;99340.16;5094365;28;20473;-72
2021/07/07 08:07:37;;;;;;;4.57;2.23;;;;;;;22.47;57.72;99346.00;5110632;28;20774;-72
2021/07/07 08:10:04;;;;;;;6.47;2.00;;;;;;;22.10;58.72;99351.97;5094702;28;20557;-73
2021/07/07 08:12:31;;;;;;;6.87;3.00;;;;;;;22.44;57.94;99355.44;5095213;28;20887;-73
2021/07/07 08:14:59;;;;;;;4.23;2.87;;;;;;;22.53;57.00;99348.06;5094659;28;20434;-73
2021/07/07 08:17:25;;;;;;;4.07;2.57;;;;;;;21.94;58.66;99359.13;5094259;28;20497;-73
2021/07/07 08:19:52;;;;;;;6.80;2.80;;;;;;;22.30;58.50;99338.81;5094933;28;20494;-73
2021/07/07 08:22:19;;;;;;;7.30;4.27;;;;;;;22.68;58.00;99349.09;5094326;28;20438;-74
2021/07/07 08:24:46;;;;;;;3.33;2.60;;;;;;;22.66;57.96;99358.53;5074185;28;20419;-75
2021/07/07 08:27:13;;;;;;;6.40;2.63;;;;;;;22.84;57.33;99356.44;5074423;28;20529;-73
2021/07/07 08:29:40;;;;;;;10.20;2.60;;;;;;;22.82;56.80;99361.25;5081969;28;20924;-73
2021/07/07 08:32:08;;;;;;;5.77;2.73;;;;;;;22.77;57.04;99360.91;5095738;28;20437;-74
2021/07/07 08:34:35;;;;;;;5.00;3.10;;;;;;;22.99;56.91;99359.34;5094760;28;20465;-73
2021/07/07 08:37:02;;;;;;;5.60;2.60;;;;;;;22.93;55.99;99371.00;5094292;28;20418;-74
2021/07/07 08:39:31;;;;;;;2.73;1.90;;;;;;;22.51;57.17;99374.81;5094215;28;20568;-74
2021/07/07 08:41:58;;;;;;;4.23;2.67;;;;;;;22.85;56.49;99374.59;5094238;28;20517;-74
2021/07/07 08:44:25;;;;;;;5.63;2.43;;;;;;;22.97;56.06;99380.59;5094577;28;20900;-74
2021/07/07 08:46:52;;;;;;;4.50;2.30;;;;;;;23.28;55.19;99366.97;5093742;28;20434;-74
2021/07/07 08:49:21;;;;;;;6.03;2.00;;;;;;;23.49;54.58;99371.91;5094276;28;20449;-72
2021/07/07 08:51:48;;;;;;;23.23;6.37;;;;;;;23.94;54.05;99366.72;5092970;28;20920;-74
2021/07/07 08:54:15;;;;;;;6.60;3.10;;;;;;;23.86;53.83;99381.38;5094018;28;20478;-72
2021/07/07 08:56:42;;;;;;;3.27;2.17;;;;;;;23.96;51.89;99381.13;5093959;28;20876;-74
2021/07/07 08:59:10;;;;;;;11.30;2.23;;;;;;;23.86;52.86;99383.28;5094336;28;20465;-73
2021/07/07 09:02:01;;;;;;;6.67;1.90;;;;;;;23.81;52.74;99388.44;5094203;28;21163;-72
2021/07/07 09:04:30;;;;;;;5.03;2.37;;;;;;;24.02;52.29;99387.81;5073532;28;20481;-74
2021/07/07 09:06:59;;;;;;;4.80;2.43;;;;;;;25.00;49.68;99389.81;5073304;28;20533;-73
2021/07/07 09:09:36;;;;;;;5.10;2.83;;;;;;;25.31;49.04;99388.84;5073734;28;20449;-74
2021/07/07 09:12:12;;;;;;;6.83;2.97;;;;;;;25.59;47.63;99397.28;5076716;28;20441;-75
2021/07/07 09:14:39;;;;;;;5.93;2.60;;;;;;;25.33;47.81;99400.53;5093648;28;20426;-74
2021/07/07 09:17:12;;;;;;;4.00;2.40;;;;;;;25.65;47.47;99393.75;5093549;28;20911;-73
2021/07/07 09:19:40;;;;;;;4.17;3.00;;;;;;;25.81;47.13;99398.22;5093596;28;20469;-73
2021/07/07 09:22:08;;;;;;;7.87;3.17;;;;;;;25.89;46.34;99395.38;5093476;28;20438;-75
2021/07/07 09:24:36;;;;;;;3.73;2.07;;;;;;;25.63;46.46;99397.75;5092991;28;20461;-74
2021/07/07 09:27:06;;;;;;;4.53;2.07;;;;;;;25.90;46.01;99391.56;5093396;28;20493;-74
2021/07/07 09:29:36;;;;;;;9.73;2.60;;;;;;;25.98;46.42;99410.78;5073248;28;20493;-73
2021/07/07 09:32:16;;;;;;;4.03;2.47;;;;;;;25.79;46.29;99414.94;5090691;28;20822;-74
2021/07/07 09:34:46;;;;;;;5.13;3.50;;;;;;;25.33;47.15;99403.28;5092605;28;20441;-73
2021/07/07 09:37:22;;;;;;;9.73;4.07;;;;;;;24.97;47.12;99415.84;5093239;28;20483;-72
2021/07/07 09:39:49;;;;;;;8.17;4.60;;;;;;;24.88;46.86;99411.44;5093266;28;20553;-73
2021/07/07 09:42:24;;;;;;;5.40;2.63;;;;;;;24.98;46.45;99416.69;5092829;28;20464;-73
2021/07/07 09:44:50;;;;;;;10.90;3.90;;;;;;;25.58;45.44;99410.22;5091706;28;20428;-74
2021/07/07 09:47:18;;;;;;;6.97;3.23;;;;;;;25.96;44.19;99404.59;5092923;28;20904;-73
2021/07/07 09:49:48;;;;;;;6.13;2.60;;;;;;;25.94;43.38;99408.59;5092691;28;20450;-74
2021/07/07 09:52:15;;;;;;;3.17;2.20;;;;;;;25.64;43.71;99410.50;5092765;28;20430;-73
2021/07/07 09:54:43;;;;;;;3.97;2.10;;;;;;;25.68;43.67;99406.31;5092736;28;20959;-74
2021/07/07 09:57:10;;;;;;;5.40;2.10;;;;;;;25.90;42.54;99399.84;5090091;28;20445;-72
2021/07/07 09:59:37;;;;;;;7.40;2.97;;;;;;;25.97;42.34;99406.28;5092723;28;20462;-74
2021/07/07 10:02:04;;;;;;;2.40;1.67;;;;;;;25.77;42.62;99405.16;5097328;28;21003;-74
2021/07/07 10:04:42;;;;;;;7.07;2.43;;;;;;;25.94;43.24;99392.91;5130588;27;20542;-74
2021/07/07 10:07:09;;;;;;;5.43;2.90;;;;;;;25.98;42.94;99391.47;5129851;28;20420;-73
2021/07/07 10:09:38;;;;;;;4.80;2.27;;;;;;;25.88;42.74;99390.06;5129700;28;20429;-73
2021/07/07 10:12:06;;;;;;;5.20;4.13;;;;;;;25.83;42.84;99398.03;5129777;28;20467;-73
2021/07/07 10:14:33;;;;;;;4.47;2.20;;;;;;;25.77;42.24;99400.50;5129831;28;20444;-72
2021/07/07 10:17:00;;;;;;;4.03;2.33;;;;;;;25.89;42.60;99392.63;5129922;28;20445;-74
2021/07/07 10:19:27;;;;;;;3.77;2.10;;;;;;;25.92;42.32;99394.16;5129156;28;20458;-72
2021/07/07 10:21:56;;;;;;;7.40;2.40;;;;;;;26.11;41.73;99388.00;5129101;28;20460;-74
2021/07/07 10:24:26;;;;;;;7.10;3.30;;;;;;;26.05;41.39;99401.69;5129525;28;20464;-73
2021/07/07 10:26:57;;;;;;;4.10;2.03;;;;;;;25.96;41.74;99399.06;5129602;28;20523;-75
2021/07/07 10:29:25;;;;;;;3.83;1.97;;;;;;;26.34;41.63;99390.56;5129551;28;20464;-73
2021/07/07 10:31:54;;;;;;;3.87;2.13;;;;;;;26.15;41.51;99396.75;5129175;28;20437;-72
2021/07/07 10:34:23;;;;;;;3.50;1.57;;;;;;;25.67;42.07;99393.59;5129446;28;20437;-73
2021/07/07 10:36:50;;;;;;;6.53;3.70;;;;;;;25.76;41.98;99395.19;5128921;28;20691;-73
2021/07/07 10:39:18;;;;;;;3.90;2.20;;;;;;;25.68;42.07;99393.38;5129291;28;20471;-73
2021/07/07 10:41:56;;;;;;;3.70;2.03;;;;;;;26.13;42.08;99394.16;5129279;28;20914;-74
2021/07/07 10:44:46;;;;;;;6.03;2.00;;;;;;;26.08;41.73;99384.78;5129133;28;20463;-73
2021/07/07 10:47:13;;;;;;;6.93;2.10;;;;;;;26.71;41.07;99379.50;5127574;28;20500;-74
2021/07/07 10:49:41;;;;;;;6.40;2.53;;;;;;;26.29;42.11;99392.22;5143475;27;20801;-73
2021/07/07 10:52:09;;;;;;;8.07;2.47;;;;;;;26.44;41.41;99384.75;5150046;27;20474;-73
2021/07/07 10:54:39;;;;;;;4.77;2.70;;;;;;;26.56;41.84;99383.19;5145944;27;20523;-73
2021/07/07 10:57:08;;;;;;;7.33;2.00;;;;;;;26.30;41.06;99392.03;5129149;28;20980;-73
2021/07/07 10:59:36;;;;;;;6.30;3.20;;;;;;;26.20;42.04;99392.34;5128627;28;20440;-74
2021/07/07 11:02:07;;;;;;;3.50;2.30;;;;;;;26.24;40.81;99395.56;5127833;28;20521;-74
2021/07/07 11:04:36;;;;;;;6.80;4.57;;;;;;;25.88;41.56;99395.56;5127635;28;20570;-73
2021/07/07 11:07:26;;;;;;;4.83;2.90;;;;;;;25.81;41.25;99389.94;5127663;28;20527;-73
2021/07/07 11:09:55;;;;;;;4.03;1.87;;;;;;;25.54;41.69;99388.75;5127097;28;20425;-74
2021/07/07 11:12:25;;;;;;;4.70;2.27;;;;;;;25.41;43.49;99388.56;5127005;28;20456;-73
2021/07/07 11:15:03;;;;;;;6.20;2.37;;;;;;;25.35;43.61;99381.91;5119185;28;20469;-73
2021/07/07 11:17:35;;;;;;;6.70;3.27;;;;;;;25.66;42.99;99384.44;5112058;28;20965;-72
2021/07/07 11:20:07;;;;;;;9.67;3.30;;;;;;;26.16;42.22;99387.41;5114872;27;20482;-74
2021/07/07 11:22:34;;;;;;;5.80;4.20;;;;;;;26.60;41.02;99391.94;5114322;28;20436;-73
2021/07/07 11:25:06;;;;;;;5.37;2.77;;;;;;;26.81;40.50;99394.66;5113784;28;20433;-74
2021/07/07 11:27:33;;;;;;;6.47;2.30;;;;;;;26.86;40.15;99399.59;5114350;28;20429;-73
2021/07/07 11:30:01;;;;;;;6.17;2.30;;;;;;;26.94;40.25;99404.13;5114519;28;20445;-72
2021/07/07 11:32:30;;;;;;;8.30;3.40;;;;;;;27.06;39.98;99402.50;5094233;28;21272;-74
2021/07/07 11:34:58;;;;;;;4.80;2.93;;;;;;;27.03;40.35;99401.00;5105297;28;20448;-74
2021/07/07 11:37:27;;;;;;;7.20;2.67;;;;;;;26.59;41.37;99404.00;5114280;28;20525;-74